createdAt,value
2023-03-06T00:00:58.041Z,100.00
2023-03-06T00:03:28.245Z,100.00
2023-03-06T00:05:59.135Z,100.00
2023-03-06T00:08:28.273Z,100.00
2023-03-06T00:11:00.908Z,100.00
2023-03-06T00:13:35.240Z,100.00
2023-03-06T00:16:03.741Z,100.00
2023-03-06T00:18:31.926Z,100.00
2023-03-06T00:21:02.375Z,100.00
2023-03-06T00:23:33.251Z,100.00
2023-03-06T00:26:02.070Z,100.00
2023-03-06T00:28:31.663Z,100.00
2023-03-06T00:31:02.756Z,100.00
2023-03-06T00:33:35.288Z,100.00
2023-03-06T00:36:06.940Z,100.00
2023-03-06T00:38:37.254Z,100.00
2023-03-06T00:41:11.911Z,100.00
2023-03-06T00:43:40.708Z,100.00
2023-03-06T00:46:09.394Z,100.00
2023-03-06T00:48:38.305Z,100.00
2023-03-06T00:51:11.430Z,100.00
2023-03-06T00:53:41.812Z,100.00
2023-03-06T00:56:10.523Z,100.00
2023-03-06T00:58:38.885Z,100.00
2023-03-06T01:01:07.107Z,100.00
2023-03-06T01:03:36.066Z,100.00
2023-03-06T01:06:06.431Z,100.00
2023-03-06T01:08:37.107Z,100.00
2023-03-06T01:11:06.028Z,100.00
2023-03-06T01:13:34.291Z,100.00
2023-03-06T01:16:15.077Z,100.00
2023-03-06T01:18:43.758Z,100.00
2023-03-06T01:21:12.092Z,100.00
2023-03-06T01:23:40.980Z,100.00
2023-03-06T01:26:09.486Z,100.00
2023-03-06T01:28:40.878Z,100.00
2023-03-06T01:31:09.221Z,100.00
2023-03-06T01:33:38.409Z,100.00
2023-03-06T01:36:08.287Z,100.00
2023-03-06T01:38:36.429Z,100.00
2023-03-06T01:41:04.959Z,100.00
2023-03-06T01:43:35.436Z,100.00
2023-03-06T01:46:18.800Z,100.00
2023-03-06T01:48:46.960Z,100.00
2023-03-06T01:51:15.370Z,100.00
2023-03-06T01:53:43.770Z,100.00
2023-03-06T01:56:12.040Z,100.00
2023-03-06T01:58:40.760Z,100.00
2023-03-06T02:01:13.530Z,100.00
2023-03-06T02:03:41.806Z,100.00
2023-03-06T02:06:09.896Z,100.00
2023-03-06T02:08:49.950Z,100.00
2023-03-06T02:11:22.595Z,100.00
2023-03-06T02:13:51.787Z,100.00
2023-03-06T02:16:21.894Z,100.00
2023-03-06T02:18:52.190Z,100.00
2023-03-06T02:21:29.416Z,100.00
2023-03-06T02:24:23.437Z,100.00
2023-03-06T02:26:51.697Z,100.00
2023-03-06T02:29:22.642Z,100.00
2023-03-06T02:31:51.035Z,100.00
2023-03-06T02:34:19.046Z,100.00
2023-03-06T02:36:49.925Z,100.00
2023-03-06T02:39:44.278Z,100.00
2023-03-06T02:42:18.718Z,100.00
2023-03-06T02:44:46.919Z,100.00
2023-03-06T02:47:15.016Z,100.00
2023-03-06T02:49:43.078Z,100.00
2023-03-06T02:52:11.730Z,100.00
2023-03-06T02:54:41.010Z,100.00
2023-03-06T02:57:09.897Z,100.00
2023-03-06T02:59:38.249Z,100.00
2023-03-06T03:02:06.469Z,100.00
2023-03-06T03:04:35.853Z,100.00
2023-03-06T03:07:04.082Z,100.00
2023-03-06T03:09:36.984Z,100.00
2023-03-06T03:12:10.366Z,100.00
2023-03-06T03:14:39.956Z,100.00
2023-03-06T03:17:08.334Z,100.00
2023-03-06T03:19:37.814Z,100.00
2023-03-06T03:22:07.262Z,100.00
2023-03-06T03:24:39.100Z,100.00
2023-03-06T03:27:08.784Z,100.00
2023-03-06T03:29:37.174Z,100.00
2023-03-06T03:32:05.613Z,100.00
2023-03-06T03:34:33.838Z,100.00
2023-03-06T03:37:05.226Z,100.00
2023-03-06T03:39:33.675Z,100.00
2023-03-06T03:42:04.556Z,100.00
2023-03-06T03:44:34.289Z,100.00
2023-03-06T03:47:02.709Z,100.00
2023-03-06T03:49:31.797Z,100.00
2023-03-06T03:52:00.244Z,100.00
2023-03-06T03:54:30.540Z,100.00
2023-03-06T03:56:59.255Z,100.00
2023-03-06T03:59:31.995Z,100.00
2023-03-06T04:02:11.634Z,100.00
2023-03-06T04:04:47.287Z,100.00
2023-03-06T04:07:15.451Z,100.00
2023-03-06T04:09:44.656Z,100.00
2023-03-06T04:12:17.018Z,100.00
2023-03-06T04:14:47.414Z,100.00
2023-03-06T04:17:15.700Z,100.00
2023-03-06T04:19:44.181Z,100.00
2023-03-06T04:22:12.727Z,100.00
2023-03-06T04:24:41.153Z,100.00
2023-03-06T04:27:16.726Z,100.00
2023-03-06T04:29:45.077Z,100.00
2023-03-06T04:32:13.183Z,100.00
2023-03-06T04:34:42.183Z,100.00
2023-03-06T04:37:22.059Z,100.00
2023-03-06T04:39:51.227Z,100.00
2023-03-06T04:42:19.243Z,100.00
2023-03-06T04:44:47.785Z,100.00
2023-03-06T04:47:19.036Z,100.00
2023-03-06T04:49:47.599Z,100.00
2023-03-06T04:52:15.712Z,100.00
2023-03-06T04:54:44.258Z,100.00
2023-03-06T04:57:14.250Z,100.00
2023-03-06T04:59:42.676Z,100.00
2023-03-06T05:02:11.166Z,100.00
2023-03-06T05:04:39.769Z,100.00
2023-03-06T05:07:08.501Z,100.00
2023-03-06T05:09:39.332Z,100.00
2023-03-06T05:12:07.804Z,100.00
2023-03-06T05:14:36.252Z,100.00
2023-03-06T05:17:07.693Z,100.00
2023-03-06T05:19:36.393Z,100.00
2023-03-06T05:22:04.996Z,100.00
2023-03-06T05:24:33.116Z,100.00
2023-03-06T05:27:01.175Z,100.00
2023-03-06T05:29:29.504Z,100.00
2023-03-06T05:32:00.499Z,100.00
2023-03-06T05:34:29.484Z,100.00
2023-03-06T05:36:57.826Z,100.00
2023-03-06T05:39:25.838Z,100.00
2023-03-06T05:41:53.977Z,100.00
2023-03-06T05:44:24.076Z,100.00
2023-03-06T05:46:52.199Z,100.00
2023-03-06T05:49:20.351Z,100.00
2023-03-06T05:51:48.600Z,100.00
2023-03-06T05:54:17.559Z,100.00
2023-03-06T05:56:46.297Z,100.00
2023-03-06T05:59:14.369Z,100.00
2023-03-06T06:01:44.338Z,100.00
2023-03-06T06:04:12.754Z,100.00
2023-03-06T06:06:41.035Z,100.00
2023-03-06T06:09:12.275Z,100.00
2023-03-06T06:11:41.718Z,100.00
2023-03-06T06:14:09.789Z,100.00
2023-03-06T06:16:39.223Z,100.00
2023-03-06T06:19:07.402Z,100.00
2023-03-06T06:21:35.580Z,100.00
2023-03-06T06:24:04.201Z,100.00
2023-03-06T06:26:36.538Z,100.00
2023-03-06T06:29:05.523Z,100.00
2023-03-06T06:31:33.630Z,100.00
2023-03-06T06:34:03.113Z,100.00
2023-03-06T06:36:31.276Z,100.00
2023-03-06T06:39:00.573Z,100.00
2023-03-06T06:44:20.897Z,100.00
2023-03-06T06:47:21.210Z,100.00
2023-03-06T06:49:42.991Z,100.00
2023-03-06T06:52:11.081Z,100.00
2023-03-06T06:54:39.102Z,100.00
2023-03-06T06:57:07.188Z,100.00
2023-03-06T06:59:35.299Z,100.00
2023-03-06T07:02:03.718Z,100.00
2023-03-06T07:04:32.017Z,100.00
2023-03-06T07:07:01.701Z,100.00
2023-03-06T07:09:31.424Z,100.00
2023-03-06T07:11:59.858Z,100.00
2023-03-06T07:14:27.890Z,100.00
2023-03-06T07:16:56.479Z,100.00
2023-03-06T07:19:28.080Z,100.00
2023-03-06T07:21:56.156Z,100.00
2023-03-06T07:24:24.823Z,100.00
2023-03-06T07:26:54.839Z,100.00
2023-03-06T07:29:22.884Z,100.00
2023-03-06T07:31:50.883Z,100.00
2023-03-06T07:34:18.923Z,100.00
2023-03-06T07:36:47.139Z,100.00
2023-03-06T07:39:15.190Z,100.00
2023-03-06T07:41:43.236Z,100.00
2023-03-06T07:44:14.577Z,100.00
2023-03-06T07:46:42.906Z,100.00
2023-03-06T07:49:11.004Z,100.00
2023-03-06T07:51:39.553Z,100.00
2023-03-06T07:54:07.848Z,100.00
2023-03-06T07:56:37.404Z,100.00
2023-03-06T07:59:05.814Z,100.00
2023-03-06T08:01:40.544Z,100.00
2023-03-06T08:04:09.352Z,100.00
2023-03-06T08:06:37.704Z,100.00
2023-03-06T08:09:07.112Z,100.00
2023-03-06T08:11:35.252Z,100.00
2023-03-06T08:14:05.041Z,100.00
2023-03-06T08:16:40.446Z,100.00
2023-03-06T08:19:11.460Z,100.00
2023-03-06T08:21:40.155Z,100.00
2023-03-06T08:24:16.707Z,100.00
2023-03-06T08:26:45.153Z,100.00
2023-03-06T08:29:18.752Z,100.00
2023-03-06T08:31:50.436Z,100.00
2023-03-06T08:34:20.766Z,100.00
2023-03-06T08:36:50.441Z,100.00
2023-03-06T08:39:19.296Z,100.00
2023-03-06T08:41:47.378Z,100.00
2023-03-06T08:44:16.147Z,100.00
2023-03-06T08:46:44.454Z,100.00
2023-03-06T08:49:12.625Z,100.00
2023-03-06T08:51:40.725Z,100.00
2023-03-06T08:54:11.262Z,100.00
2023-03-06T08:56:39.784Z,100.00
2023-03-06T08:59:09.529Z,100.00
2023-03-06T09:01:38.000Z,100.00
2023-03-06T09:04:26.125Z,100.00
2023-03-06T09:06:55.608Z,100.00
2023-03-06T09:09:23.841Z,100.00
2023-03-06T09:11:53.739Z,100.00
2023-03-06T09:14:22.136Z,100.00
2023-03-06T09:16:50.794Z,100.00
2023-03-06T09:19:19.039Z,100.00
2023-03-06T09:21:48.554Z,100.00
2023-03-06T09:24:17.956Z,100.00
2023-03-06T09:26:47.954Z,100.00
2023-03-06T09:29:17.652Z,100.00
2023-03-06T09:31:48.531Z,100.00
2023-03-06T09:34:17.088Z,100.00
2023-03-06T09:36:56.771Z,100.00
2023-03-06T09:39:26.186Z,100.00
2023-03-06T09:41:54.577Z,100.00
2023-03-06T09:44:33.268Z,100.00
2023-03-06T09:47:13.741Z,100.00
2023-03-06T09:50:17.189Z,100.00
2023-03-06T09:52:57.399Z,100.00
2023-03-06T09:55:27.204Z,100.00
2023-03-06T09:58:11.317Z,100.00
2023-03-06T10:01:01.059Z,100.00
2023-03-06T10:03:55.018Z,100.00
2023-03-06T10:06:42.071Z,100.00
2023-03-06T10:09:26.445Z,100.00
2023-03-06T10:12:06.772Z,100.00
2023-03-06T10:14:37.992Z,100.00
2023-03-06T10:17:06.591Z,100.00
2023-03-06T10:19:37.979Z,100.00
2023-03-06T10:22:33.151Z,100.00
2023-03-06T10:25:20.317Z,100.00
2023-03-06T10:27:50.418Z,100.00
2023-03-06T10:30:34.394Z,100.00
2023-03-06T10:33:07.581Z,100.00
2023-03-06T10:35:50.007Z,100.00
2023-03-06T10:38:38.347Z,100.00
2023-03-06T10:41:12.540Z,97.30
2023-03-06T10:43:43.996Z,95.68
2023-03-06T10:46:14.929Z,100.00
2023-03-06T10:48:44.285Z,99.50
2023-03-06T10:51:20.570Z,95.42
2023-03-06T10:53:55.995Z,87.69
2023-03-06T10:56:28.740Z,83.53
2023-03-06T10:59:09.193Z,80.62
2023-03-06T11:01:41.561Z,77.14
2023-03-06T11:04:28.925Z,74.51
2023-03-06T11:07:12.290Z,77.18
2023-03-06T11:09:41.097Z,82.21
2023-03-06T11:12:32.506Z,82.85
2023-03-06T11:15:07.564Z,83.51
2023-03-06T11:17:55.305Z,84.50
2023-03-06T11:20:26.927Z,81.61
2023-03-06T11:22:59.969Z,81.11
2023-03-06T11:25:32.946Z,81.01
2023-03-06T11:28:19.156Z,82.20
2023-03-06T11:30:53.788Z,79.20
2023-03-06T11:33:38.936Z,81.06
2023-03-06T11:36:16.339Z,84.30
2023-03-06T11:38:49.309Z,82.35
2023-03-06T11:41:44.945Z,81.20
2023-03-06T11:44:24.718Z,80.95
2023-03-06T11:47:16.297Z,81.89
2023-03-06T11:49:46.894Z,80.59
2023-03-06T11:52:23.214Z,71.79
2023-03-06T11:54:54.544Z,66.37
2023-03-06T11:57:30.896Z,64.69
2023-03-06T12:00:15.911Z,65.23
2023-03-06T12:03:12.760Z,63.77
2023-03-06T12:05:47.480Z,60.60
2023-03-06T12:08:55.418Z,58.50
2023-03-06T12:11:29.690Z,57.81
2023-03-06T12:14:18.049Z,57.30
2023-03-06T12:16:50.139Z,52.36
2023-03-06T12:19:55.652Z,51.10
2023-03-06T12:22:31.171Z,49.84
2023-03-06T12:25:18.193Z,50.62
2023-03-06T12:28:04.774Z,50.49
2023-03-06T12:30:54.792Z,50.93
2023-03-06T12:33:41.967Z,48.20
2023-03-06T12:36:35.188Z,48.18
2023-03-06T12:39:18.105Z,48.45
2023-03-06T12:42:22.617Z,47.98
2023-03-06T12:44:58.145Z,47.90
2023-03-06T12:47:28.172Z,47.52
2023-03-06T12:49:59.447Z,47.19
2023-03-06T12:52:32.143Z,46.62
2023-03-06T12:55:01.642Z,46.93
2023-03-06T12:57:29.865Z,45.47
2023-03-06T12:59:57.919Z,46.30
2023-03-06T13:02:59.983Z,45.95
2023-03-06T13:06:06.383Z,43.57
2023-03-06T13:08:59.534Z,42.89
2023-03-06T13:11:39.459Z,42.29
2023-03-06T13:14:37.554Z,43.35
2023-03-06T13:17:22.974Z,43.88
2023-03-06T13:20:30.257Z,43.10
2023-03-06T13:22:58.790Z,43.34
2023-03-06T13:25:27.109Z,44.56
2023-03-06T13:27:55.567Z,44.05
2023-03-06T13:30:43.788Z,43.51
2023-03-06T13:33:24.804Z,43.11
2023-03-06T13:35:54.950Z,44.67
2023-03-06T13:38:58.376Z,45.48
2023-03-06T13:41:33.936Z,46.48
2023-03-06T13:44:20.591Z,45.87
2023-03-06T13:47:05.725Z,44.43
2023-03-06T13:49:34.244Z,43.83
2023-03-06T13:52:34.656Z,43.91
2023-03-06T13:55:12.482Z,44.35
2023-03-06T13:57:46.612Z,44.50
2023-03-06T14:00:45.896Z,44.96
2023-03-06T14:03:19.431Z,45.99
2023-03-06T14:05:49.592Z,46.27
2023-03-06T14:08:22.830Z,46.15
2023-03-06T14:11:21.209Z,46.16
2023-03-06T14:13:52.403Z,45.68
2023-03-06T14:16:21.821Z,46.53
2023-03-06T14:18:52.759Z,46.95
2023-03-06T14:21:47.057Z,48.02
2023-03-06T14:24:37.304Z,48.60
2023-03-06T14:27:05.795Z,48.31
2023-03-06T14:29:34.577Z,48.75
2023-03-06T14:32:06.019Z,48.22
2023-03-06T14:34:40.198Z,48.79
2023-03-06T14:37:25.322Z,48.94
2023-03-06T14:39:55.418Z,49.48
2023-03-06T14:42:28.006Z,49.76
2023-03-06T14:45:05.559Z,49.97
2023-03-06T14:47:36.573Z,50.31
2023-03-06T14:50:23.391Z,50.73
2023-03-06T14:52:58.357Z,50.91
2023-03-06T14:55:28.338Z,51.20
2023-03-06T14:58:01.529Z,51.65
2023-03-06T15:00:35.893Z,51.65
2023-03-06T15:03:06.017Z,52.44
2023-03-06T15:05:34.692Z,53.02
2023-03-06T15:08:04.031Z,53.64
2023-03-06T15:10:35.517Z,55.48
2023-03-06T15:13:11.498Z,58.29
2023-03-06T15:15:39.668Z,60.85
2023-03-06T15:18:38.971Z,64.47
2023-03-06T15:21:17.606Z,73.26
2023-03-06T15:23:47.361Z,79.21
2023-03-06T15:26:23.041Z,82.69
2023-03-06T15:29:16.837Z,83.62
2023-03-06T15:31:45.571Z,84.39
2023-03-06T15:34:17.452Z,85.62
2023-03-06T15:36:47.509Z,86.70
2023-03-06T15:39:35.471Z,88.64
2023-03-06T15:42:20.386Z,93.35
2023-03-06T15:44:56.660Z,94.99
2023-03-06T15:47:24.687Z,95.27
2023-03-06T15:49:53.385Z,98.39
2023-03-06T15:52:24.501Z,100.00
2023-03-06T15:54:52.803Z,99.09
2023-03-06T15:57:25.327Z,95.06
2023-03-06T15:59:53.723Z,92.45
2023-03-06T16:02:22.838Z,91.25
2023-03-06T16:04:51.463Z,89.82
2023-03-06T16:07:20.799Z,87.07
2023-03-06T16:09:57.015Z,84.42
2023-03-06T16:12:30.920Z,83.21
2023-03-06T16:14:59.354Z,82.39
2023-03-06T16:17:32.876Z,81.79
2023-03-06T16:20:01.230Z,82.42
2023-03-06T16:22:31.829Z,82.03
2023-03-06T16:24:59.950Z,82.37
2023-03-06T16:27:28.279Z,81.90
2023-03-06T16:29:57.635Z,81.80
2023-03-06T16:32:28.700Z,81.89
2023-03-06T16:34:57.016Z,82.82
2023-03-06T16:37:25.337Z,83.75
2023-03-06T16:39:53.815Z,85.83
2023-03-06T16:42:24.471Z,87.92
2023-03-06T16:44:52.737Z,91.35
2023-03-06T16:47:21.917Z,92.56
2023-03-06T16:49:52.193Z,95.61
2023-03-06T16:52:20.178Z,99.35
2023-03-06T16:54:48.304Z,100.00
2023-03-06T16:57:17.986Z,100.00
2023-03-06T16:59:46.070Z,100.00
2023-03-06T17:02:14.295Z,100.00
2023-03-06T17:04:42.458Z,100.00
2023-03-06T17:07:10.740Z,100.00
2023-03-06T17:09:39.960Z,100.00
2023-03-06T17:12:08.508Z,100.00
2023-03-06T17:14:38.511Z,100.00
2023-03-06T17:17:07.170Z,100.00
2023-03-06T17:19:36.301Z,100.00
2023-03-06T17:22:05.320Z,100.00
2023-03-06T17:24:33.448Z,100.00
2023-03-06T17:27:06.954Z,100.00
2023-03-06T17:29:35.447Z,100.00
2023-03-06T17:32:03.843Z,100.00
2023-03-06T17:34:33.004Z,100.00
2023-03-06T17:37:01.686Z,100.00
2023-03-06T17:39:33.989Z,100.00
2023-03-06T17:42:03.454Z,100.00
2023-03-06T17:44:34.576Z,100.00
2023-03-06T17:47:05.086Z,100.00
2023-03-06T17:49:33.207Z,100.00
2023-03-06T17:52:03.018Z,100.00
2023-03-06T17:54:33.285Z,100.00
2023-03-06T17:57:03.642Z,100.00
2023-03-06T17:59:34.298Z,100.00
2023-03-06T18:02:06.479Z,100.00
2023-03-06T18:04:35.616Z,100.00
2023-03-06T18:07:04.010Z,100.00
2023-03-06T18:09:35.031Z,100.00
2023-03-06T18:12:03.876Z,100.00
2023-03-06T18:14:32.215Z,100.00
2023-03-06T18:17:00.755Z,100.00
2023-03-06T18:19:29.602Z,100.00
2023-03-06T18:21:57.680Z,100.00
2023-03-06T18:24:29.329Z,100.00
2023-03-06T18:26:57.672Z,100.00
2023-03-06T18:29:27.017Z,100.00
2023-03-06T18:31:56.943Z,100.00
2023-03-06T18:34:25.339Z,100.00
2023-03-06T18:36:58.877Z,100.00
2023-03-06T18:39:26.968Z,100.00
2023-03-06T18:41:58.657Z,100.00
2023-03-06T18:44:27.531Z,100.00
2023-03-06T18:46:55.726Z,100.00
2023-03-06T18:49:24.160Z,100.00
2023-03-06T18:51:54.795Z,100.00
2023-03-06T18:54:25.458Z,100.00
2023-03-06T18:56:53.668Z,100.00
2023-03-06T18:59:41.567Z,100.00
2023-03-06T19:02:10.965Z,100.00
2023-03-06T19:04:39.123Z,100.00
2023-03-06T19:07:07.587Z,100.00
2023-03-06T19:09:35.747Z,100.00
2023-03-06T19:12:04.381Z,100.00
2023-03-06T19:14:33.914Z,100.00
2023-03-06T19:17:04.771Z,100.00
2023-03-06T19:19:35.353Z,100.00
2023-03-06T19:22:03.363Z,100.00
2023-03-06T19:24:35.297Z,100.00
2023-03-06T19:27:04.857Z,100.00
2023-03-06T19:29:33.610Z,100.00
2023-03-06T19:32:03.585Z,100.00
2023-03-06T19:34:35.619Z,100.00
2023-03-06T19:37:03.759Z,100.00
2023-03-06T19:39:33.476Z,100.00
2023-03-06T19:42:04.743Z,100.00
2023-03-06T19:44:34.926Z,100.00
2023-03-06T19:47:05.575Z,100.00
2023-03-06T19:49:35.600Z,100.00
2023-03-06T19:52:04.737Z,100.00
2023-03-06T19:54:33.902Z,100.00
2023-03-06T19:57:02.243Z,100.00
2023-03-06T19:59:34.857Z,100.00
2023-03-06T20:02:07.016Z,100.00
2023-03-06T20:04:35.168Z,100.00
2023-03-06T20:07:05.067Z,100.00
2023-03-06T20:09:35.304Z,100.00
2023-03-06T20:12:05.553Z,100.00
2023-03-06T20:14:35.944Z,100.00
2023-03-06T20:17:04.363Z,100.00
2023-03-06T20:19:35.716Z,100.00
2023-03-06T20:22:08.549Z,100.00
2023-03-06T20:24:42.037Z,100.00
2023-03-06T20:27:17.282Z,100.00
2023-03-06T20:29:59.010Z,100.00
2023-03-06T20:32:27.322Z,100.00
2023-03-06T20:34:55.541Z,100.00
2023-03-06T20:37:25.999Z,100.00
2023-03-06T20:42:51.773Z,100.00
2023-03-06T20:45:20.049Z,100.00
2023-03-06T20:47:50.974Z,100.00
2023-03-06T20:50:19.147Z,100.00
2023-03-06T20:52:47.963Z,100.00
2023-03-06T20:55:16.727Z,100.00
2023-03-06T20:57:45.096Z,100.00
2023-03-06T21:00:14.134Z,100.00
2023-03-06T21:03:02.259Z,100.00
2023-03-06T21:05:32.848Z,100.00
2023-03-06T21:08:01.992Z,100.00
2023-03-06T21:10:31.200Z,100.00
2023-03-06T21:13:00.603Z,100.00
2023-03-06T21:15:30.151Z,100.00
2023-03-06T21:17:58.466Z,100.00
2023-03-06T21:20:26.561Z,100.00
2023-03-06T21:22:56.268Z,100.00
2023-03-06T21:25:24.578Z,100.00
2023-03-06T21:27:52.898Z,100.00
2023-03-06T21:30:21.486Z,100.00
2023-03-06T21:32:51.081Z,100.00
2023-03-06T21:35:19.751Z,100.00
2023-03-06T21:37:50.193Z,100.00
2023-03-06T21:40:18.759Z,100.00
2023-03-06T21:42:46.825Z,100.00
2023-03-06T21:45:14.974Z,100.00
2023-03-06T21:47:48.375Z,100.00
2023-03-06T21:50:18.276Z,100.00
2023-03-06T21:52:49.969Z,100.00
2023-03-06T21:55:18.546Z,100.00
2023-03-06T21:57:51.177Z,100.00
2023-03-06T22:00:20.189Z,100.00
2023-03-06T22:02:50.155Z,100.00
2023-03-06T22:05:18.734Z,100.00
2023-03-06T22:07:48.111Z,100.00
2023-03-06T22:10:16.586Z,100.00
2023-03-06T22:12:48.002Z,100.00
2023-03-06T22:15:16.688Z,100.00
2023-03-06T22:17:47.834Z,100.00
2023-03-06T22:20:19.211Z,100.00
2023-03-06T22:22:50.530Z,100.00
2023-03-06T22:25:18.898Z,100.00
2023-03-06T22:27:46.876Z,100.00
2023-03-06T22:30:15.545Z,100.00
2023-03-06T22:32:43.900Z,100.00
2023-03-06T22:35:14.950Z,100.00
2023-03-06T22:37:44.251Z,100.00
2023-03-06T22:40:13.833Z,100.00
2023-03-06T22:42:42.580Z,100.00
2023-03-06T22:45:12.554Z,100.00
2023-03-06T22:47:43.484Z,100.00
2023-03-06T22:50:12.016Z,100.00
2023-03-06T22:52:40.178Z,100.00
2023-03-06T22:55:10.265Z,100.00
2023-03-06T22:57:38.719Z,100.00
2023-03-06T23:00:08.192Z,100.00
2023-03-06T23:02:38.699Z,100.00
2023-03-06T23:05:07.482Z,100.00
2023-03-06T23:07:37.492Z,100.00
2023-03-06T23:10:07.030Z,100.00
2023-03-06T23:12:54.099Z,100.00
2023-03-06T23:15:40.832Z,100.00
2023-03-06T23:18:30.832Z,100.00
2023-03-06T23:21:18.226Z,100.00
2023-03-06T23:24:06.627Z,100.00
2023-03-06T23:26:35.796Z,100.00
2023-03-06T23:29:04.496Z,100.00
2023-03-06T23:31:33.535Z,100.00
2023-03-06T23:34:02.360Z,100.00
2023-03-06T23:36:30.952Z,100.00
2023-03-06T23:38:59.414Z,100.00
2023-03-06T23:41:29.778Z,100.00
2023-03-06T23:43:58.476Z,100.00
2023-03-06T23:46:26.560Z,100.00
2023-03-06T23:48:54.903Z,100.00
2023-03-06T23:51:23.664Z,100.00
2023-03-06T23:53:56.614Z,100.00
2023-03-06T23:56:25.589Z,100.00
2023-03-06T23:58:54.819Z,100.00
